sensor_id;sensor_type;location;lat;lon;timestamp;P1;durP1;ratioP1;P2;durP2;ratioP2
23418;SDS011;11882;42.522;27.458;2024-01-07T00:00:12;2.90;;;2.40;;
23418;SDS011;11882;42.522;27.458;2024-01-07T00:02:41;2.33;;;2.00;;
23418;SDS011;11882;42.522;27.458;2024-01-07T00:05:09;4.53;;;2.60;;
23418;SDS011;11882;42.522;27.458;2024-01-07T00:07:36;3.00;;;2.30;;
23418;SDS011;11882;42.522;27.458;2024-01-07T00:10:03;3.57;;;2.33;;
23418;SDS011;11882;42.522;27.458;2024-01-07T00:12:31;4.13;;;2.87;;
23418;SDS011;11882;42.522;27.458;2024-01-07T00:14:58;3.80;;;2.87;;
23418;SDS011;11882;42.522;27.458;2024-01-07T00:17:25;8.73;;;2.20;;
23418;SDS011;11882;42.522;27.458;2024-01-07T00:19:55;2.30;;;2.00;;
23418;SDS011;11882;42.522;27.458;2024-01-07T00:22:22;2.23;;;1.60;;
23418;SDS011;11882;42.522;27.458;2024-01-07T00:24:50;2.77;;;1.70;;
23418;SDS011;11882;42.522;27.458;2024-01-07T00:27:17;3.07;;;2.23;;
23418;SDS011;11882;42.522;27.458;2024-01-07T00:29:44;2.93;;;2.00;;
23418;SDS011;11882;42.522;27.458;2024-01-07T00:32:11;1.40;;;1.30;;
23418;SDS011;11882;42.522;27.458;2024-01-07T00:34:38;3.27;;;2.00;;
23418;SDS011;11882;42.522;27.458;2024-01-07T00:37:07;2.67;;;2.07;;
23418;SDS011;11882;42.522;27.458;2024-01-07T00:39:34;4.73;;;2.20;;
23418;SDS011;11882;42.522;27.458;2024-01-07T00:42:02;2.87;;;1.67;;
23418;SDS011;11882;42.522;27.458;2024-01-07T00:44:29;2.97;;;1.80;;
23418;SDS011;11882;42.522;27.458;2024-01-07T00:46:56;2.40;;;1.60;;
23418;SDS011;11882;42.522;27.458;2024-01-07T00:49:23;2.53;;;2.00;;
23418;SDS011;11882;42.522;27.458;2024-01-07T00:51:51;2.50;;;1.93;;
23418;SDS011;11882;42.522;27.458;2024-01-07T00:54:19;4.30;;;1.87;;
23418;SDS011;11882;42.522;27.458;2024-01-07T00:56:47;1.53;;;1.40;;
23418;SDS011;11882;42.522;27.458;2024-01-07T00:59:14;1.93;;;1.57;;
23418;SDS011;11882;42.522;27.458;2024-01-07T01:01:41;2.00;;;1.80;;
23418;SDS011;11882;42.522;27.458;2024-01-07T01:04:08;2.47;;;1.97;;
23418;SDS011;11882;42.522;27.458;2024-01-07T01:06:35;3.63;;;1.90;;
23418;SDS011;11882;42.522;27.458;2024-01-07T01:09:02;1.50;;;1.40;;
23418;SDS011;11882;42.522;27.458;2024-01-07T01:11:31;1.80;;;1.53;;
23418;SDS011;11882;42.522;27.458;2024-01-07T01:13:58;4.43;;;2.13;;
23418;SDS011;11882;42.522;27.458;2024-01-07T01:16:26;2.80;;;2.00;;
23418;SDS011;11882;42.522;27.458;2024-01-07T01:18:53;2.87;;;2.40;;
23418;SDS011;11882;42.522;27.458;2024-01-07T01:21:20;3.07;;;2.00;;
23418;SDS011;11882;42.522;27.458;2024-01-07T01:23:48;4.10;;;2.47;;
23418;SDS011;11882;42.522;27.458;2024-01-07T01:26:15;2.67;;;2.47;;
23418;SDS011;11882;42.522;27.458;2024-01-07T01:28:44;4.20;;;1.90;;
23418;SDS011;11882;42.522;27.458;2024-01-07T01:31:12;2.77;;;2.33;;
23418;SDS011;11882;42.522;27.458;2024-01-07T01:33:40;4.00;;;2.20;;
23418;SDS011;11882;42.522;27.458;2024-01-07T01:36:08;4.43;;;2.60;;
23418;SDS011;11882;42.522;27.458;2024-01-07T01:38:35;3.17;;;2.23;;
23418;SDS011;11882;42.522;27.458;2024-01-07T01:41:03;3.73;;;2.50;;
23418;SDS011;11882;42.522;27.458;2024-01-07T01:43:30;9.03;;;2.57;;
23418;SDS011;11882;42.522;27.458;2024-01-07T01:45:59;7.13;;;2.47;;
23418;SDS011;11882;42.522;27.458;2024-01-07T01:48:26;4.00;;;2.40;;
23418;SDS011;11882;42.522;27.458;2024-01-07T01:50:54;6.17;;;2.87;;
23418;SDS011;11882;42.522;27.458;2024-01-07T01:53:23;4.00;;;2.33;;
23418;SDS011;11882;42.522;27.458;2024-01-07T01:55:51;2.93;;;2.47;;
23418;SDS011;11882;42.522;27.458;2024-01-07T01:58:19;4.00;;;2.80;;
23418;SDS011;11882;42.522;27.458;2024-01-07T02:00:48;3.27;;;2.30;;
23418;SDS011;11882;42.522;27.458;2024-01-07T02:03:17;5.93;;;3.27;;
23418;SDS011;11882;42.522;27.458;2024-01-07T02:05:45;6.10;;;2.03;;
23418;SDS011;11882;42.522;27.458;2024-01-07T02:08:12;3.40;;;2.33;;
23418;SDS011;11882;42.522;27.458;2024-01-07T02:10:40;2.30;;;1.77;;
23418;SDS011;11882;42.522;27.458;2024-01-07T02:13:07;5.07;;;2.70;;
23418;SDS011;11882;42.522;27.458;2024-01-07T02:15:34;3.80;;;2.43;;
23418;SDS011;11882;42.522;27.458;2024-01-07T02:18:01;3.50;;;2.50;;
23418;SDS011;11882;42.522;27.458;2024-01-07T02:20:30;4.07;;;2.40;;
23418;SDS011;11882;42.522;27.458;2024-01-07T02:22:57;2.50;;;2.00;;
23418;SDS011;11882;42.522;27.458;2024-01-07T02:25:26;3.23;;;2.63;;
23418;SDS011;11882;42.522;27.458;2024-01-07T02:27:53;1.87;;;1.77;;
23418;SDS011;11882;42.522;27.458;2024-01-07T02:30:20;2.53;;;2.10;;
23418;SDS011;11882;42.522;27.458;2024-01-07T02:32:48;2.27;;;1.87;;
23418;SDS011;11882;42.522;27.458;2024-01-07T02:35:15;2.00;;;1.80;;
23418;SDS011;11882;42.522;27.458;2024-01-07T02:37:42;5.33;;;2.67;;
23418;SDS011;11882;42.522;27.458;2024-01-07T02:40:10;4.00;;;2.37;;
23418;SDS011;11882;42.522;27.458;2024-01-07T02:42:39;3.23;;;2.20;;
23418;SDS011;11882;42.522;27.458;2024-01-07T02:45:07;2.40;;;1.90;;
23418;SDS011;11882;42.522;27.458;2024-01-07T02:47:35;2.80;;;2.03;;
23418;SDS011;11882;42.522;27.458;2024-01-07T02:50:03;4.07;;;2.57;;
23418;SDS011;11882;42.522;27.458;2024-01-07T02:52:30;2.33;;;1.97;;
23418;SDS011;11882;42.522;27.458;2024-01-07T02:54:58;4.00;;;2.00;;
23418;SDS011;11882;42.522;27.458;2024-01-07T02:57:26;3.73;;;2.10;;
23418;SDS011;11882;42.522;27.458;2024-01-07T02:59:55;4.03;;;1.53;;
23418;SDS011;11882;42.522;27.458;2024-01-07T03:02:22;4.13;;;2.43;;
23418;SDS011;11882;42.522;27.458;2024-01-07T03:04:49;2.33;;;2.10;;
23418;SDS011;11882;42.522;27.458;2024-01-07T03:07:17;2.80;;;1.97;;
23418;SDS011;11882;42.522;27.458;2024-01-07T03:09:44;1.80;;;1.60;;
23418;SDS011;11882;42.522;27.458;2024-01-07T03:12:11;3.27;;;1.93;;
23418;SDS011;11882;42.522;27.458;2024-01-07T03:14:39;3.00;;;1.70;;
23418;SDS011;11882;42.522;27.458;2024-01-07T03:17:09;2.60;;;1.80;;
23418;SDS011;11882;42.522;27.458;2024-01-07T03:19:37;2.33;;;2.00;;
23418;SDS011;11882;42.522;27.458;2024-01-07T03:22:05;1.63;;;1.53;;
23418;SDS011;11882;42.522;27.458;2024-01-07T03:24:33;2.00;;;1.70;;
23418;SDS011;11882;42.522;27.458;2024-01-07T03:27:00;3.03;;;2.20;;
23418;SDS011;11882;42.522;27.458;2024-01-07T03:29:27;2.90;;;1.97;;
23418;SDS011;11882;42.522;27.458;2024-01-07T03:31:54;3.97;;;1.77;;
23418;SDS011;11882;42.522;27.458;2024-01-07T03:34:23;4.50;;;2.17;;
23418;SDS011;11882;42.522;27.458;2024-01-07T03:36:50;1.80;;;1.67;;
23418;SDS011;11882;42.522;27.458;2024-01-07T03:39:17;1.80;;;1.70;;
23418;SDS011;11882;42.522;27.458;2024-01-07T03:41:44;1.73;;;1.40;;
23418;SDS011;11882;42.522;27.458;2024-01-07T03:44:11;2.27;;;1.70;;
23418;SDS011;11882;42.522;27.458;2024-01-07T03:46:39;4.17;;;2.40;;
23418;SDS011;11882;42.522;27.458;2024-01-07T03:49:06;2.47;;;1.93;;
23418;SDS011;11882;42.522;27.458;2024-01-07T03:51:35;2.43;;;1.83;;
23418;SDS011;11882;42.522;27.458;2024-01-07T03:54:02;3.60;;;2.10;;
23418;SDS011;11882;42.522;27.458;2024-01-07T03:56:30;2.23;;;1.80;;
23418;SDS011;11882;42.522;27.458;2024-01-07T03:58:57;9.23;;;2.17;;
23418;SDS011;11882;42.522;27.458;2024-01-07T04:01:24;3.53;;;1.80;;
23418;SDS011;11882;42.522;27.458;2024-01-07T04:03:51;2.03;;;1.57;;
23418;SDS011;11882;42.522;27.458;2024-01-07T04:06:18;1.63;;;1.47;;
23418;SDS011;11882;42.522;27.458;2024-01-07T04:08:47;2.87;;;1.90;;
23418;SDS011;11882;42.522;27.458;2024-01-07T04:11:15;3.33;;;2.07;;
23418;SDS011;11882;42.522;27.458;2024-01-07T04:13:42;2.90;;;1.93;;
23418;SDS011;11882;42.522;27.458;2024-01-07T04:16:15;3.57;;;1.90;;
23418;SDS011;11882;42.522;27.458;2024-01-07T04:18:43;4.33;;;1.53;;
23418;SDS011;11882;42.522;27.458;2024-01-07T04:21:10;4.23;;;2.50;;
23418;SDS011;11882;42.522;27.458;2024-01-07T04:23:38;5.53;;;2.03;;
23418;SDS011;11882;42.522;27.458;2024-01-07T04:26:07;2.17;;;1.97;;
23418;SDS011;11882;42.522;27.458;2024-01-07T04:28:35;6.93;;;2.33;;
23418;SDS011;11882;42.522;27.458;2024-01-07T04:31:02;2.27;;;1.57;;
23418;SDS011;11882;42.522;27.458;2024-01-07T04:33:29;6.83;;;2.17;;
23418;SDS011;11882;42.522;27.458;2024-01-07T04:35:56;2.03;;;1.60;;
23418;SDS011;11882;42.522;27.458;2024-01-07T04:38:26;2.70;;;2.13;;
23418;SDS011;11882;42.522;27.458;2024-01-07T04:40:53;3.20;;;1.90;;
23418;SDS011;11882;42.522;27.458;2024-01-07T04:43:22;2.60;;;1.77;;
23418;SDS011;11882;42.522;27.458;2024-01-07T04:45:49;2.33;;;1.53;;
23418;SDS011;11882;42.522;27.458;2024-01-07T04:48:16;2.50;;;2.17;;
23418;SDS011;11882;42.522;27.458;2024-01-07T04:50:44;4.37;;;1.90;;
23418;SDS011;11882;42.522;27.458;2024-01-07T04:53:11;1.80;;;1.60;;
23418;SDS011;11882;42.522;27.458;2024-01-07T04:55:38;2.73;;;1.90;;
23418;SDS011;11882;42.522;27.458;2024-01-07T04:58:06;4.43;;;1.87;;
23418;SDS011;11882;42.522;27.458;2024-01-07T05:00:34;3.27;;;1.97;;
23418;SDS011;11882;42.522;27.458;2024-01-07T05:03:01;2.47;;;1.77;;
23418;SDS011;11882;42.522;27.458;2024-01-07T05:05:28;2.93;;;1.90;;
23418;SDS011;11882;42.522;27.458;2024-01-07T05:07:56;2.00;;;1.70;;
23418;SDS011;11882;42.522;27.458;2024-01-07T05:10:24;7.13;;;2.37;;
23418;SDS011;11882;42.522;27.458;2024-01-07T05:12:51;3.80;;;1.77;;
23418;SDS011;11882;42.522;27.458;2024-01-07T05:15:18;3.17;;;2.80;;
23418;SDS011;11882;42.522;27.458;2024-01-07T05:17:47;2.30;;;2.00;;
23418;SDS011;11882;42.522;27.458;2024-01-07T05:20:15;2.60;;;2.00;;
23418;SDS011;11882;42.522;27.458;2024-01-07T05:22:42;4.47;;;2.17;;
23418;SDS011;11882;42.522;27.458;2024-01-07T05:25:08;2.23;;;1.50;;
23418;SDS011;11882;42.522;27.458;2024-01-07T05:27:35;2.20;;;1.60;;
23418;SDS011;11882;42.522;27.458;2024-01-07T05:30:03;1.97;;;1.30;;
23418;SDS011;11882;42.522;27.458;2024-01-07T05:32:31;0.73;;;0.73;;
23418;SDS011;11882;42.522;27.458;2024-01-07T05:35:00;3.83;;;1.07;;
23418;SDS011;11882;42.522;27.458;2024-01-07T05:37:27;1.13;;;1.00;;
23418;SDS011;11882;42.522;27.458;2024-01-07T05:39:54;0.60;;;0.40;;
23418;SDS011;11882;42.522;27.458;2024-01-07T05:42:21;0.30;;;0.30;;
23418;SDS011;11882;42.522;27.458;2024-01-07T05:44:48;0.00;;;0.00;;
23418;SDS011;11882;42.522;27.458;2024-01-07T05:47:16;0.47;;;0.37;;
23418;SDS011;11882;42.522;27.458;2024-01-07T05:49:43;0.53;;;0.30;;
23418;SDS011;11882;42.522;27.458;2024-01-07T05:52:12;0.00;;;0.00;;
23418;SDS011;11882;42.522;27.458;2024-01-07T05:54:39;0.47;;;0.20;;
23418;SDS011;11882;42.522;27.458;2024-01-07T05:57:07;0.30;;;0.30;;
23418;SDS011;11882;42.522;27.458;2024-01-07T05:59:34;0.63;;;0.27;;
23418;SDS011;11882;42.522;27.458;2024-01-07T06:02:01;0.03;;;0.00;;
23418;SDS011;11882;42.522;27.458;2024-01-07T06:04:28;0.10;;;0.10;;
23418;SDS011;11882;42.522;27.458;2024-01-07T06:06:56;0.40;;;0.40;;
23418;SDS011;11882;42.522;27.458;2024-01-07T06:09:25;0.73;;;0.23;;
23418;SDS011;11882;42.522;27.458;2024-01-07T06:11:52;0.37;;;0.30;;
23418;SDS011;11882;42.522;27.458;2024-01-07T06:14:20;1.03;;;0.43;;
23418;SDS011;11882;42.522;27.458;2024-01-07T06:16:48;0.20;;;0.20;;
23418;SDS011;11882;42.522;27.458;2024-01-07T06:19:16;0.50;;;0.50;;
23418;SDS011;11882;42.522;27.458;2024-01-07T06:21:43;0.30;;;0.30;;
23418;SDS011;11882;42.522;27.458;2024-01-07T06:24:10;0.20;;;0.20;;
23418;SDS011;11882;42.522;27.458;2024-01-07T06:26:39;0.13;;;0.13;;
23418;SDS011;11882;42.522;27.458;2024-01-07T06:29:07;0.30;;;0.23;;
23418;SDS011;11882;42.522;27.458;2024-01-07T06:31:34;0.10;;;0.10;;
23418;SDS011;11882;42.522;27.458;2024-01-07T06:34:02;0.30;;;0.30;;
23418;SDS011;11882;42.522;27.458;2024-01-07T06:36:29;0.30;;;0.30;;
23418;SDS011;11882;42.522;27.458;2024-01-07T06:38:56;0.40;;;0.40;;
23418;SDS011;11882;42.522;27.458;2024-01-07T06:41:23;0.33;;;0.10;;
23418;SDS011;11882;42.522;27.458;2024-01-07T06:43:52;0.20;;;0.20;;
23418;SDS011;11882;42.522;27.458;2024-01-07T06:46:36;0.67;;;0.30;;
23418;SDS011;11882;42.522;27.458;2024-01-07T06:49:03;0.70;;;0.40;;
23418;SDS011;11882;42.522;27.458;2024-01-07T06:51:31;2.37;;;0.10;;
23418;SDS011;11882;42.522;27.458;2024-01-07T06:53:58;0.00;;;0.00;;
23418;SDS011;11882;42.522;27.458;2024-01-07T06:56:25;0.10;;;0.10;;
23418;SDS011;11882;42.522;27.458;2024-01-07T06:58:54;0.13;;;0.10;;
23418;SDS011;11882;42.522;27.458;2024-01-07T07:01:21;2.10;;;0.40;;
23418;SDS011;11882;42.522;27.458;2024-01-07T07:03:48;0.20;;;0.20;;
23418;SDS011;11882;42.522;27.458;2024-01-07T07:06:16;0.30;;;0.20;;
23418;SDS011;11882;42.522;27.458;2024-01-07T07:08:43;0.93;;;0.37;;
23418;SDS011;11882;42.522;27.458;2024-01-07T07:11:10;0.20;;;0.20;;
23418;SDS011;11882;42.522;27.458;2024-01-07T07:13:37;0.03;;;0.03;;
23418;SDS011;11882;42.522;27.458;2024-01-07T07:16:07;1.40;;;0.53;;
23418;SDS011;11882;42.522;27.458;2024-01-07T07:18:34;0.20;;;0.20;;
23418;SDS011;11882;42.522;27.458;2024-01-07T07:21:01;0.10;;;0.10;;
23418;SDS011;11882;42.522;27.458;2024-01-07T07:23:28;0.17;;;0.10;;
23418;SDS011;11882;42.522;27.458;2024-01-07T07:25:55;0.30;;;0.30;;
23418;SDS011;11882;42.522;27.458;2024-01-07T07:28:22;1.30;;;0.40;;
23418;SDS011;11882;42.522;27.458;2024-01-07T07:30:50;1.70;;;0.40;;
23418;SDS011;11882;42.522;27.458;2024-01-07T07:33:18;2.30;;;0.43;;
23418;SDS011;11882;42.522;27.458;2024-01-07T07:35:45;0.30;;;0.30;;
23418;SDS011;11882;42.522;27.458;2024-01-07T07:38:13;1.10;;;0.77;;
23418;SDS011;11882;42.522;27.458;2024-01-07T07:40:40;0.37;;;0.37;;
23418;SDS011;11882;42.522;27.458;2024-01-07T07:43:07;1.30;;;0.73;;
23418;SDS011;11882;42.522;27.458;2024-01-07T07:45:35;1.07;;;0.60;;
23418;SDS011;11882;42.522;27.458;2024-01-07T07:48:02;1.97;;;1.10;;
23418;SDS011;11882;42.522;27.458;2024-01-07T07:50:32;6.80;;;0.40;;
23418;SDS011;11882;42.522;27.458;2024-01-07T07:52:59;0.83;;;0.60;;
23418;SDS011;11882;42.522;27.458;2024-01-07T07:55:26;2.57;;;0.80;;
23418;SDS011;11882;42.522;27.458;2024-01-07T07:57:53;0.97;;;0.80;;
23418;SDS011;11882;42.522;27.458;2024-01-07T08:00:20;0.83;;;0.47;;
23418;SDS011;11882;42.522;27.458;2024-01-07T08:02:48;1.07;;;0.57;;
23418;SDS011;11882;42.522;27.458;2024-01-07T08:05:15;3.40;;;1.83;;
23418;SDS011;11882;42.522;27.458;2024-01-07T08:07:44;2.30;;;1.33;;
23418;SDS011;11882;42.522;27.458;2024-01-07T08:10:11;0.77;;;0.70;;
23418;SDS011;11882;42.522;27.458;2024-01-07T08:12:38;2.37;;;0.87;;
23418;SDS011;11882;42.522;27.458;2024-01-07T08:15:06;2.43;;;0.77;;
23418;SDS011;11882;42.522;27.458;2024-01-07T08:17:34;2.83;;;0.73;;
23418;SDS011;11882;42.522;27.458;2024-01-07T08:20:01;2.43;;;0.43;;
23418;SDS011;11882;42.522;27.458;2024-01-07T08:22:29;1.83;;;0.70;;
23418;SDS011;11882;42.522;27.458;2024-01-07T08:24:58;0.33;;;0.33;;
23418;SDS011;11882;42.522;27.458;2024-01-07T08:27:25;0.10;;;0.10;;
23418;SDS011;11882;42.522;27.458;2024-01-07T08:29:52;7.97;;;0.60;;
23418;SDS011;11882;42.522;27.458;2024-01-07T08:32:19;0.37;;;0.30;;
23418;SDS011;11882;42.522;27.458;2024-01-07T08:34:48;1.73;;;0.67;;
23418;SDS011;11882;42.522;27.458;2024-01-07T08:37:15;5.93;;;0.70;;
23418;SDS011;11882;42.522;27.458;2024-01-07T08:39:42;0.80;;;0.80;;
23418;SDS011;11882;42.522;27.458;2024-01-07T08:42:11;1.30;;;0.40;;
23418;SDS011;11882;42.522;27.458;2024-01-07T08:44:38;0.90;;;0.63;;
23418;SDS011;11882;42.522;27.458;2024-01-07T08:47:05;1.10;;;0.67;;
23418;SDS011;11882;42.522;27.458;2024-01-07T08:49:33;2.47;;;0.97;;
23418;SDS011;11882;42.522;27.458;2024-01-07T08:52:01;2.50;;;1.00;;
23418;SDS011;11882;42.522;27.458;2024-01-07T08:54:28;1.30;;;0.97;;
23418;SDS011;11882;42.522;27.458;2024-01-07T08:56:55;1.13;;;0.47;;
23418;SDS011;11882;42.522;27.458;2024-01-07T08:59:24;1.63;;;0.90;;
23418;SDS011;11882;42.522;27.458;2024-01-07T09:01:51;1.63;;;0.93;;
23418;SDS011;11882;42.522;27.458;2024-01-07T09:04:17;2.93;;;1.03;;
23418;SDS011;11882;42.522;27.458;2024-01-07T09:06:44;0.80;;;0.50;;
23418;SDS011;11882;42.522;27.458;2024-01-07T09:09:11;5.10;;;1.83;;
23418;SDS011;11882;42.522;27.458;2024-01-07T09:11:38;1.97;;;0.97;;
23418;SDS011;11882;42.522;27.458;2024-01-07T09:14:06;2.20;;;1.50;;
23418;SDS011;11882;42.522;27.458;2024-01-07T09:16:35;2.93;;;1.47;;
23418;SDS011;11882;42.522;27.458;2024-01-07T09:19:02;2.33;;;1.10;;
23418;SDS011;11882;42.522;27.458;2024-01-07T09:21:29;4.70;;;0.83;;
23418;SDS011;11882;42.522;27.458;2024-01-07T09:23:56;3.53;;;0.73;;
23418;SDS011;11882;42.522;27.458;2024-01-07T09:26:24;2.70;;;0.73;;
23418;SDS011;11882;42.522;27.458;2024-01-07T09:28:51;1.40;;;0.67;;
23418;SDS011;11882;42.522;27.458;2024-01-07T09:31:19;0.47;;;0.47;;
23418;SDS011;11882;42.522;27.458;2024-01-07T09:33:47;0.57;;;0.27;;
23418;SDS011;11882;42.522;27.458;2024-01-07T09:36:14;1.70;;;0.63;;
23418;SDS011;11882;42.522;27.458;2024-01-07T09:38:42;2.80;;;1.40;;
23418;SDS011;11882;42.522;27.458;2024-01-07T09:41:09;1.53;;;0.73;;
23418;SDS011;11882;42.522;27.458;2024-01-07T09:43:36;1.87;;;1.03;;
23418;SDS011;11882;42.522;27.458;2024-01-07T09:46:03;1.60;;;0.90;;
23418;SDS011;11882;42.522;27.458;2024-01-07T09:48:31;1.90;;;0.67;;
23418;SDS011;11882;42.522;27.458;2024-01-07T09:51:00;1.30;;;0.90;;
23418;SDS011;11882;42.522;27.458;2024-01-07T09:53:29;1.23;;;0.80;;
23418;SDS011;11882;42.522;27.458;2024-01-07T09:56:00;1.60;;;0.67;;
23418;SDS011;11882;42.522;27.458;2024-01-07T09:58:34;2.60;;;0.90;;
23418;SDS011;11882;42.522;27.458;2024-01-07T10:01:01;3.47;;;1.60;;
23418;SDS011;11882;42.522;27.458;2024-01-07T10:03:30;5.43;;;1.23;;
23418;SDS011;11882;42.522;27.458;2024-01-07T10:05:57;4.07;;;1.73;;
23418;SDS011;11882;42.522;27.458;2024-01-07T10:08:26;2.63;;;1.27;;
23418;SDS011;11882;42.522;27.458;2024-01-07T10:10:53;2.47;;;1.30;;
23418;SDS011;11882;42.522;27.458;2024-01-07T10:13:21;11.17;;;1.63;;
23418;SDS011;11882;42.522;27.458;2024-01-07T10:15:49;5.23;;;1.50;;
23418;SDS011;11882;42.522;27.458;2024-01-07T10:18:18;4.93;;;1.20;;
23418;SDS011;11882;42.522;27.458;2024-01-07T10:20:45;1.20;;;0.83;;
23418;SDS011;11882;42.522;27.458;2024-01-07T10:23:12;5.47;;;1.40;;
23418;SDS011;11882;42.522;27.458;2024-01-07T10:25:46;3.90;;;1.53;;
23418;SDS011;11882;42.522;27.458;2024-01-07T10:28:14;3.80;;;1.73;;
23418;SDS011;11882;42.522;27.458;2024-01-07T10:30:41;6.93;;;1.07;;
23418;SDS011;11882;42.522;27.458;2024-01-07T10:33:16;5.70;;;1.67;;
23418;SDS011;11882;42.522;27.458;2024-01-07T10:35:46;12.63;;;11.67;;
23418;SDS011;11882;42.522;27.458;2024-01-07T10:38:18;1.97;;;1.10;;
23418;SDS011;11882;42.522;27.458;2024-01-07T10:40:48;4.23;;;1.63;;
23418;SDS011;11882;42.522;27.458;2024-01-07T10:43:19;284.10;;;256.73;;
23418;SDS011;11882;42.522;27.458;2024-01-07T10:45:47;55.57;;;48.97;;
23418;SDS011;11882;42.522;27.458;2024-01-07T10:48:16;141.70;;;127.43;;
23418;SDS011;11882;42.522;27.458;2024-01-07T10:50:45;121.20;;;111.47;;
23418;SDS011;11882;42.522;27.458;2024-01-07T10:53:17;337.13;;;309.53;;
23418;SDS011;11882;42.522;27.458;2024-01-07T10:55:51;399.73;;;368.37;;
23418;SDS011;11882;42.522;27.458;2024-01-07T10:58:21;448.23;;;401.57;;
23418;SDS011;11882;42.522;27.458;2024-01-07T11:00:49;398.43;;;358.50;;
23418;SDS011;11882;42.522;27.458;2024-01-07T11:03:20;334.90;;;299.53;;
23418;SDS011;11882;42.522;27.458;2024-01-07T11:05:56;77.53;;;73.07;;
23418;SDS011;11882;42.522;27.458;2024-01-07T11:08:29;149.80;;;134.90;;
23418;SDS011;11882;42.522;27.458;2024-01-07T11:11:04;4.47;;;1.30;;
23418;SDS011;11882;42.522;27.458;2024-01-07T11:13:36;23.97;;;22.20;;
23418;SDS011;11882;42.522;27.458;2024-01-07T11:16:05;284.47;;;259.13;;
23418;SDS011;11882;42.522;27.458;2024-01-07T11:18:37;309.30;;;283.33;;
23418;SDS011;11882;42.522;27.458;2024-01-07T11:21:05;189.80;;;174.83;;
23418;SDS011;11882;42.522;27.458;2024-01-07T11:23:33;260.97;;;215.53;;
23418;SDS011;11882;42.522;27.458;2024-01-07T11:26:04;540.43;;;483.07;;
23418;SDS011;11882;42.522;27.458;2024-01-07T11:31:17;8.30;;;2.80;;
23418;SDS011;11882;42.522;27.458;2024-01-07T11:33:45;17.00;;;15.37;;
23418;SDS011;11882;42.522;27.458;2024-01-07T11:36:13;11.10;;;10.13;;
23418;SDS011;11882;42.522;27.458;2024-01-07T11:38:42;4.73;;;1.10;;
23418;SDS011;11882;42.522;27.458;2024-01-07T11:41:11;3.27;;;2.07;;
23418;SDS011;11882;42.522;27.458;2024-01-07T11:43:51;10.03;;;9.03;;
23418;SDS011;11882;42.522;27.458;2024-01-07T11:46:20;2.33;;;1.77;;
23418;SDS011;11882;42.522;27.458;2024-01-07T11:48:47;4.93;;;2.40;;
23418;SDS011;11882;42.522;27.458;2024-01-07T11:51:15;18.57;;;17.10;;
23418;SDS011;11882;42.522;27.458;2024-01-07T11:53:44;197.27;;;175.60;;
23418;SDS011;11882;42.522;27.458;2024-01-07T11:56:14;135.37;;;123.37;;
23418;SDS011;11882;42.522;27.458;2024-01-07T11:58:41;188.97;;;173.17;;
23418;SDS011;11882;42.522;27.458;2024-01-07T12:01:09;21.70;;;19.97;;
23418;SDS011;11882;42.522;27.458;2024-01-07T12:03:36;325.93;;;300.00;;
23418;SDS011;11882;42.522;27.458;2024-01-07T12:06:03;320.23;;;291.33;;
23418;SDS011;11882;42.522;27.458;2024-01-07T12:08:31;545.87;;;441.77;;
23418;SDS011;11882;42.522;27.458;2024-01-07T12:10:59;355.47;;;318.83;;
23418;SDS011;11882;42.522;27.458;2024-01-07T12:13:28;526.43;;;472.80;;
23418;SDS011;11882;42.522;27.458;2024-01-07T12:15:56;313.67;;;279.37;;
23418;SDS011;11882;42.522;27.458;2024-01-07T12:18:24;39.07;;;34.83;;
23418;SDS011;11882;42.522;27.458;2024-01-07T12:20:54;4.07;;;1.80;;
23418;SDS011;11882;42.522;27.458;2024-01-07T12:23:23;20.67;;;18.57;;
23418;SDS011;11882;42.522;27.458;2024-01-07T12:25:50;10.50;;;6.60;;
23418;SDS011;11882;42.522;27.458;2024-01-07T12:28:18;11.37;;;6.20;;
23418;SDS011;11882;42.522;27.458;2024-01-07T12:30:48;3.03;;;1.37;;
23418;SDS011;11882;42.522;27.458;2024-01-07T12:33:16;3.63;;;1.57;;
23418;SDS011;11882;42.522;27.458;2024-01-07T12:35:44;6.73;;;1.50;;
23418;SDS011;11882;42.522;27.458;2024-01-07T12:38:12;3.47;;;1.60;;
23418;SDS011;11882;42.522;27.458;2024-01-07T12:40:39;7.53;;;2.27;;
23418;SDS011;11882;42.522;27.458;2024-01-07T12:43:06;6.50;;;2.03;;
23418;SDS011;11882;42.522;27.458;2024-01-07T12:45:33;5.10;;;1.97;;
23418;SDS011;11882;42.522;27.458;2024-01-07T12:48:02;3.93;;;1.57;;
23418;SDS011;11882;42.522;27.458;2024-01-07T12:50:30;7.07;;;1.57;;
23418;SDS011;11882;42.522;27.458;2024-01-07T12:52:58;3.17;;;1.63;;
23418;SDS011;11882;42.522;27.458;2024-01-07T12:55:26;4.87;;;1.30;;
23418;SDS011;11882;42.522;27.458;2024-01-07T12:57:54;3.83;;;1.97;;
23418;SDS011;11882;42.522;27.458;2024-01-07T13:00:23;5.67;;;1.77;;
23418;SDS011;11882;42.522;27.458;2024-01-07T13:02:51;10.90;;;2.13;;
23418;SDS011;11882;42.522;27.458;2024-01-07T13:05:20;1.90;;;1.33;;
23418;SDS011;11882;42.522;27.458;2024-01-07T13:07:48;4.53;;;1.63;;
23418;SDS011;11882;42.522;27.458;2024-01-07T13:10:16;1.20;;;1.00;;
23418;SDS011;11882;42.522;27.458;2024-01-07T13:12:43;5.93;;;1.40;;
23418;SDS011;11882;42.522;27.458;2024-01-07T13:15:10;3.77;;;1.60;;
23418;SDS011;11882;42.522;27.458;2024-01-07T13:17:38;2.40;;;1.17;;
23418;SDS011;11882;42.522;27.458;2024-01-07T13:20:06;6.33;;;1.83;;
23418;SDS011;11882;42.522;27.458;2024-01-07T13:22:38;5.40;;;1.27;;
23418;SDS011;11882;42.522;27.458;2024-01-07T13:25:05;8.63;;;4.00;;
23418;SDS011;11882;42.522;27.458;2024-01-07T13:27:33;2.63;;;1.17;;
23418;SDS011;11882;42.522;27.458;2024-01-07T13:30:01;7.47;;;1.30;;
23418;SDS011;11882;42.522;27.458;2024-01-07T13:32:28;4.13;;;1.47;;
23418;SDS011;11882;42.522;27.458;2024-01-07T13:34:55;3.70;;;1.50;;
23418;SDS011;11882;42.522;27.458;2024-01-07T13:37:23;4.33;;;1.27;;
23418;SDS011;11882;42.522;27.458;2024-01-07T13:39:51;2.77;;;1.13;;
23418;SDS011;11882;42.522;27.458;2024-01-07T13:42:18;2.33;;;1.33;;
23418;SDS011;11882;42.522;27.458;2024-01-07T13:44:46;1.63;;;1.17;;
23418;SDS011;11882;42.522;27.458;2024-01-07T13:47:13;2.33;;;1.47;;
23418;SDS011;11882;42.522;27.458;2024-01-07T13:49:41;4.10;;;1.27;;
23418;SDS011;11882;42.522;27.458;2024-01-07T13:52:10;1.60;;;0.90;;
23418;SDS011;11882;42.522;27.458;2024-01-07T13:54:37;1.53;;;1.20;;
23418;SDS011;11882;42.522;27.458;2024-01-07T13:57:06;1.43;;;1.10;;
23418;SDS011;11882;42.522;27.458;2024-01-07T13:59:33;1.70;;;1.20;;
23418;SDS011;11882;42.522;27.458;2024-01-07T14:02:00;14.83;;;5.03;;
23418;SDS011;11882;42.522;27.458;2024-01-07T14:04:28;7.63;;;1.67;;
23418;SDS011;11882;42.522;27.458;2024-01-07T14:06:55;4.37;;;1.00;;
23418;SDS011;11882;42.522;27.458;2024-01-07T14:09:22;4.37;;;1.40;;
23418;SDS011;11882;42.522;27.458;2024-01-07T14:11:50;4.13;;;1.47;;
23418;SDS011;11882;42.522;27.458;2024-01-07T14:14:18;2.70;;;1.10;;
23418;SDS011;11882;42.522;27.458;2024-01-07T14:16:46;3.97;;;1.77;;
23418;SDS011;11882;42.522;27.458;2024-01-07T14:19:13;7.40;;;1.03;;
23418;SDS011;11882;42.522;27.458;2024-01-07T14:21:41;2.50;;;1.57;;
23418;SDS011;11882;42.522;27.458;2024-01-07T14:24:08;4.23;;;1.33;;
23418;SDS011;11882;42.522;27.458;2024-01-07T14:26:35;3.67;;;1.40;;
23418;SDS011;11882;42.522;27.458;2024-01-07T14:29:03;5.40;;;1.33;;
23418;SDS011;11882;42.522;27.458;2024-01-07T14:31:32;1.60;;;1.30;;
23418;SDS011;11882;42.522;27.458;2024-01-07T14:33:59;3.27;;;1.53;;
23418;SDS011;11882;42.522;27.458;2024-01-07T14:36:26;5.00;;;1.60;;